sensor_id;sensor_type;location;lat;lon;timestamp;P1;durP1;ratioP1;P2;durP2;ratioP2
40787;SDS011;26497;52.494;7.546;2023-04-06T00:00:21;17.55;;;7.75;;
40787;SDS011;26497;52.494;7.546;2023-04-06T00:02:49;9.85;;;7.25;;
40787;SDS011;26497;52.494;7.546;2023-04-06T00:05:17;9.63;;;6.75;;
40787;SDS011;26497;52.494;7.546;2023-04-06T00:07:45;13.55;;;7.70;;
40787;SDS011;26497;52.494;7.546;2023-04-06T00:10:13;12.82;;;7.82;;
40787;SDS011;26497;52.494;7.546;2023-04-06T00:12:41;12.93;;;7.28;;
40787;SDS011;26497;52.494;7.546;2023-04-06T00:15:08;11.65;;;7.30;;
40787;SDS011;26497;52.494;7.546;2023-04-06T00:17:36;8.90;;;7.18;;
40787;SDS011;26497;52.494;7.546;2023-04-06T00:20:04;10.07;;;7.55;;
40787;SDS011;26497;52.494;7.546;2023-04-06T00:22:33;12.15;;;8.23;;
40787;SDS011;26497;52.494;7.546;2023-04-06T00:25:00;15.85;;;8.10;;
40787;SDS011;26497;52.494;7.546;2023-04-06T00:27:28;9.93;;;7.88;;
40787;SDS011;26497;52.494;7.546;2023-04-06T00:29:56;11.93;;;7.88;;
40787;SDS011;26497;52.494;7.546;2023-04-06T00:32:23;11.00;;;7.03;;
40787;SDS011;26497;52.494;7.546;2023-04-06T00:34:50;16.17;;;8.27;;
40787;SDS011;26497;52.494;7.546;2023-04-06T00:37:17;14.98;;;8.50;;
40787;SDS011;26497;52.494;7.546;2023-04-06T00:39:44;10.57;;;7.72;;
40787;SDS011;26497;52.494;7.546;2023-04-06T00:42:11;12.15;;;7.65;;
40787;SDS011;26497;52.494;7.546;2023-04-06T00:44:40;17.27;;;9.23;;
40787;SDS011;26497;52.494;7.546;2023-04-06T00:47:08;15.93;;;9.48;;
40787;SDS011;26497;52.494;7.546;2023-04-06T00:49:35;13.70;;;8.02;;
40787;SDS011;26497;52.494;7.546;2023-04-06T00:52:03;13.85;;;8.75;;
40787;SDS011;26497;52.494;7.546;2023-04-06T00:54:30;11.27;;;7.63;;
40787;SDS011;26497;52.494;7.546;2023-04-06T00:56:57;11.85;;;8.20;;
40787;SDS011;26497;52.494;7.546;2023-04-06T00:59:24;10.10;;;8.75;;
40787;SDS011;26497;52.494;7.546;2023-04-06T01:01:54;14.13;;;8.20;;
40787;SDS011;26497;52.494;7.546;2023-04-06T01:04:21;14.95;;;8.57;;
40787;SDS011;26497;52.494;7.546;2023-04-06T01:06:48;13.93;;;7.53;;
40787;SDS011;26497;52.494;7.546;2023-04-06T01:09:16;10.55;;;7.63;;
40787;SDS011;26497;52.494;7.546;2023-04-06T01:11:43;12.35;;;9.07;;
40787;SDS011;26497;52.494;7.546;2023-04-06T01:14:10;13.27;;;9.65;;
40787;SDS011;26497;52.494;7.546;2023-04-06T01:16:37;20.42;;;9.30;;
40787;SDS011;26497;52.494;7.546;2023-04-06T01:19:08;14.05;;;8.65;;
40787;SDS011;26497;52.494;7.546;2023-04-06T01:21:37;12.93;;;8.73;;
40787;SDS011;26497;52.494;7.546;2023-04-06T01:24:06;18.58;;;10.30;;
40787;SDS011;26497;52.494;7.546;2023-04-06T01:26:35;15.70;;;10.23;;
40787;SDS011;26497;52.494;7.546;2023-04-06T01:29:03;15.20;;;8.18;;
40787;SDS011;26497;52.494;7.546;2023-04-06T01:31:30;12.90;;;8.85;;
40787;SDS011;26497;52.494;7.546;2023-04-06T01:33:57;17.63;;;9.05;;
40787;SDS011;26497;52.494;7.546;2023-04-06T01:36:24;13.20;;;9.02;;
40787;SDS011;26497;52.494;7.546;2023-04-06T01:38:51;22.35;;;10.35;;
40787;SDS011;26497;52.494;7.546;2023-04-06T01:41:20;14.98;;;9.43;;
40787;SDS011;26497;52.494;7.546;2023-04-06T01:43:47;16.05;;;8.88;;
40787;SDS011;26497;52.494;7.546;2023-04-06T01:46:14;15.13;;;9.55;;
40787;SDS011;26497;52.494;7.546;2023-04-06T01:48:42;15.32;;;9.65;;
40787;SDS011;26497;52.494;7.546;2023-04-06T01:51:09;18.73;;;11.10;;
40787;SDS011;26497;52.494;7.546;2023-04-06T01:53:36;15.82;;;10.70;;
40787;SDS011;26497;52.494;7.546;2023-04-06T01:56:03;14.13;;;8.95;;
40787;SDS011;26497;52.494;7.546;2023-04-06T01:58:32;17.10;;;10.63;;
40787;SDS011;26497;52.494;7.546;2023-04-06T02:01:00;25.83;;;10.32;;
40787;SDS011;26497;52.494;7.546;2023-04-06T02:03:27;17.13;;;10.02;;
40787;SDS011;26497;52.494;7.546;2023-04-06T02:05:54;32.05;;;10.73;;
40787;SDS011;26497;52.494;7.546;2023-04-06T02:08:21;16.27;;;9.93;;
40787;SDS011;26497;52.494;7.546;2023-04-06T02:10:48;16.13;;;9.85;;
40787;SDS011;26497;52.494;7.546;2023-04-06T02:13:15;15.57;;;9.27;;
40787;SDS011;26497;52.494;7.546;2023-04-06T02:15:43;17.77;;;8.57;;
40787;SDS011;26497;52.494;7.546;2023-04-06T02:18:10;22.05;;;10.05;;
40787;SDS011;26497;52.494;7.546;2023-04-06T02:20:37;15.02;;;9.75;;
40787;SDS011;26497;52.494;7.546;2023-04-06T02:23:04;15.85;;;9.60;;
40787;SDS011;26497;52.494;7.546;2023-04-06T02:25:31;18.52;;;9.00;;
40787;SDS011;26497;52.494;7.546;2023-04-06T02:27:58;17.48;;;10.02;;
40787;SDS011;26497;52.494;7.546;2023-04-06T02:30:26;21.38;;;9.52;;
40787;SDS011;26497;52.494;7.546;2023-04-06T02:32:55;18.70;;;9.30;;
40787;SDS011;26497;52.494;7.546;2023-04-06T02:35:22;21.73;;;11.60;;
40787;SDS011;26497;52.494;7.546;2023-04-06T02:37:51;15.13;;;10.38;;
40787;SDS011;26497;52.494;7.546;2023-04-06T02:40:18;19.55;;;9.65;;
40787;SDS011;26497;52.494;7.546;2023-04-06T02:42:45;19.08;;;10.52;;
40787;SDS011;26497;52.494;7.546;2023-04-06T02:45:12;16.60;;;10.27;;
40787;SDS011;26497;52.494;7.546;2023-04-06T02:47:40;13.82;;;9.38;;
40787;SDS011;26497;52.494;7.546;2023-04-06T02:50:09;18.27;;;10.60;;
40787;SDS011;26497;52.494;7.546;2023-04-06T02:52:36;20.02;;;10.82;;
40787;SDS011;26497;52.494;7.546;2023-04-06T02:55:03;20.58;;;11.98;;
40787;SDS011;26497;52.494;7.546;2023-04-06T02:57:32;23.08;;;11.35;;
40787;SDS011;26497;52.494;7.546;2023-04-06T02:59:59;15.00;;;10.15;;
40787;SDS011;26497;52.494;7.546;2023-04-06T03:02:26;16.67;;;10.88;;
40787;SDS011;26497;52.494;7.546;2023-04-06T03:04:53;17.20;;;11.82;;
40787;SDS011;26497;52.494;7.546;2023-04-06T03:07:22;19.20;;;11.45;;
40787;SDS011;26497;52.494;7.546;2023-04-06T03:09:49;23.95;;;11.88;;
40787;SDS011;26497;52.494;7.546;2023-04-06T03:12:16;28.73;;;11.30;;
40787;SDS011;26497;52.494;7.546;2023-04-06T03:14:43;25.25;;;11.30;;
40787;SDS011;26497;52.494;7.546;2023-04-06T03:17:10;19.40;;;10.57;;
40787;SDS011;26497;52.494;7.546;2023-04-06T03:19:37;21.48;;;11.57;;
40787;SDS011;26497;52.494;7.546;2023-04-06T03:22:04;18.83;;;12.32;;
40787;SDS011;26497;52.494;7.546;2023-04-06T03:24:32;24.48;;;11.52;;
40787;SDS011;26497;52.494;7.546;2023-04-06T03:26:59;28.85;;;13.65;;
40787;SDS011;26497;52.494;7.546;2023-04-06T03:29:26;20.40;;;12.50;;
40787;SDS011;26497;52.494;7.546;2023-04-06T03:31:53;22.23;;;12.65;;
40787;SDS011;26497;52.494;7.546;2023-04-06T03:34:20;16.70;;;10.82;;
40787;SDS011;26497;52.494;7.546;2023-04-06T03:36:47;25.58;;;12.18;;
40787;SDS011;26497;52.494;7.546;2023-04-06T03:39:15;24.63;;;13.27;;
40787;SDS011;26497;52.494;7.546;2023-04-06T03:41:43;18.20;;;11.48;;
40787;SDS011;26497;52.494;7.546;2023-04-06T03:44:10;20.88;;;11.40;;
40787;SDS011;26497;52.494;7.546;2023-04-06T03:46:37;28.30;;;12.57;;
40787;SDS011;26497;52.494;7.546;2023-04-06T03:49:04;25.38;;;13.57;;
40787;SDS011;26497;52.494;7.546;2023-04-06T03:51:31;25.08;;;10.93;;
40787;SDS011;26497;52.494;7.546;2023-04-06T03:53:58;20.10;;;11.43;;
40787;SDS011;26497;52.494;7.546;2023-04-06T03:56:25;21.77;;;11.80;;
40787;SDS011;26497;52.494;7.546;2023-04-06T03:58:54;19.20;;;11.20;;
40787;SDS011;26497;52.494;7.546;2023-04-06T04:01:21;17.52;;;10.77;;
40787;SDS011;26497;52.494;7.546;2023-04-06T04:03:48;20.00;;;11.82;;
40787;SDS011;26497;52.494;7.546;2023-04-06T04:06:15;20.52;;;12.05;;
40787;SDS011;26497;52.494;7.546;2023-04-06T04:08:42;23.52;;;12.35;;
40787;SDS011;26497;52.494;7.546;2023-04-06T04:11:09;19.80;;;11.70;;
40787;SDS011;26497;52.494;7.546;2023-04-06T04:13:36;23.13;;;13.45;;
40787;SDS011;26497;52.494;7.546;2023-04-06T04:16:05;23.63;;;12.00;;
40787;SDS011;26497;52.494;7.546;2023-04-06T04:18:32;18.25;;;11.23;;
40787;SDS011;26497;52.494;7.546;2023-04-06T04:20:59;38.88;;;11.82;;
40787;SDS011;26497;52.494;7.546;2023-04-06T04:23:26;25.77;;;12.98;;
40787;SDS011;26497;52.494;7.546;2023-04-06T04:25:53;18.38;;;11.52;;
40787;SDS011;26497;52.494;7.546;2023-04-06T04:28:20;24.05;;;11.80;;
40787;SDS011;26497;52.494;7.546;2023-04-06T04:30:47;27.02;;;12.48;;
40787;SDS011;26497;52.494;7.546;2023-04-06T04:33:15;19.40;;;11.82;;
40787;SDS011;26497;52.494;7.546;2023-04-06T04:35:42;17.10;;;10.73;;
40787;SDS011;26497;52.494;7.546;2023-04-06T04:38:09;26.45;;;12.45;;
40787;SDS011;26497;52.494;7.546;2023-04-06T04:40:36;17.58;;;11.40;;
40787;SDS011;26497;52.494;7.546;2023-04-06T04:43:03;21.58;;;12.95;;
40787;SDS011;26497;52.494;7.546;2023-04-06T04:45:30;23.60;;;13.15;;
40787;SDS011;26497;52.494;7.546;2023-04-06T04:47:57;20.30;;;12.85;;
40787;SDS011;26497;52.494;7.546;2023-04-06T04:50:26;20.15;;;11.90;;
40787;SDS011;26497;52.494;7.546;2023-04-06T04:52:53;23.85;;;11.60;;
40787;SDS011;26497;52.494;7.546;2023-04-06T04:55:20;17.02;;;11.27;;
40787;SDS011;26497;52.494;7.546;2023-04-06T04:57:47;19.95;;;10.95;;
40787;SDS011;26497;52.494;7.546;2023-04-06T05:00:14;22.48;;;11.55;;
40787;SDS011;26497;52.494;7.546;2023-04-06T05:02:41;18.15;;;12.30;;
40787;SDS011;26497;52.494;7.546;2023-04-06T05:05:08;18.30;;;11.57;;
40787;SDS011;26497;52.494;7.546;2023-04-06T05:07:37;21.27;;;12.88;;
40787;SDS011;26497;52.494;7.546;2023-04-06T05:10:05;20.75;;;11.73;;
40787;SDS011;26497;52.494;7.546;2023-04-06T05:12:33;19.50;;;12.80;;
40787;SDS011;26497;52.494;7.546;2023-04-06T05:15:00;23.98;;;12.00;;
40787;SDS011;26497;52.494;7.546;2023-04-06T05:17:27;22.05;;;13.30;;
40787;SDS011;26497;52.494;7.546;2023-04-06T05:19:54;28.17;;;15.45;;
40787;SDS011;26497;52.494;7.546;2023-04-06T05:22:21;22.08;;;13.10;;
40787;SDS011;26497;52.494;7.546;2023-04-06T05:24:50;21.58;;;12.15;;
40787;SDS011;26497;52.494;7.546;2023-04-06T05:27:17;28.85;;;13.30;;
40787;SDS011;26497;52.494;7.546;2023-04-06T05:29:44;25.75;;;12.85;;
40787;SDS011;26497;52.494;7.546;2023-04-06T05:32:11;37.72;;;15.77;;
40787;SDS011;26497;52.494;7.546;2023-04-06T05:34:38;24.80;;;13.60;;
40787;SDS011;26497;52.494;7.546;2023-04-06T05:37:05;22.42;;;13.27;;
40787;SDS011;26497;52.494;7.546;2023-04-06T05:39:32;29.67;;;14.45;;
40787;SDS011;26497;52.494;7.546;2023-04-06T05:42:03;26.98;;;13.85;;
40787;SDS011;26497;52.494;7.546;2023-04-06T05:44:31;26.65;;;14.45;;
40787;SDS011;26497;52.494;7.546;2023-04-06T05:46:58;24.67;;;14.00;;
40787;SDS011;26497;52.494;7.546;2023-04-06T05:49:25;26.27;;;13.52;;
40787;SDS011;26497;52.494;7.546;2023-04-06T05:51:52;22.35;;;13.50;;
40787;SDS011;26497;52.494;7.546;2023-04-06T05:54:19;16.65;;;11.05;;
40787;SDS011;26497;52.494;7.546;2023-04-06T05:56:46;18.83;;;12.27;;
40787;SDS011;26497;52.494;7.546;2023-04-06T05:59:14;24.02;;;13.98;;
40787;SDS011;26497;52.494;7.546;2023-04-06T06:01:41;21.98;;;13.13;;
40787;SDS011;26497;52.494;7.546;2023-04-06T06:04:09;20.13;;;11.38;;
40787;SDS011;26497;52.494;7.546;2023-04-06T06:06:36;19.52;;;11.85;;
40787;SDS011;26497;52.494;7.546;2023-04-06T06:09:03;23.35;;;11.45;;
40787;SDS011;26497;52.494;7.546;2023-04-06T06:11:30;26.65;;;11.65;;
40787;SDS011;26497;52.494;7.546;2023-04-06T06:13:58;17.80;;;10.27;;
40787;SDS011;26497;52.494;7.546;2023-04-06T06:16:26;15.73;;;9.55;;
40787;SDS011;26497;52.494;7.546;2023-04-06T06:18:53;16.55;;;10.20;;
40787;SDS011;26497;52.494;7.546;2023-04-06T06:21:20;14.82;;;8.82;;
40787;SDS011;26497;52.494;7.546;2023-04-06T06:23:47;11.52;;;7.15;;
40787;SDS011;26497;52.494;7.546;2023-04-06T06:26:15;12.63;;;7.75;;
40787;SDS011;26497;52.494;7.546;2023-04-06T06:28:42;9.27;;;7.47;;
40787;SDS011;26497;52.494;7.546;2023-04-06T06:31:09;17.50;;;7.07;;
40787;SDS011;26497;52.494;7.546;2023-04-06T06:33:38;11.50;;;5.85;;
40787;SDS011;26497;52.494;7.546;2023-04-06T06:36:05;13.48;;;6.18;;
40787;SDS011;26497;52.494;7.546;2023-04-06T06:38:33;9.65;;;7.25;;
40787;SDS011;26497;52.494;7.546;2023-04-06T06:41:00;8.95;;;6.43;;
40787;SDS011;26497;52.494;7.546;2023-04-06T06:43:27;10.35;;;5.72;;
40787;SDS011;26497;52.494;7.546;2023-04-06T06:45:54;5.72;;;4.97;;
40787;SDS011;26497;52.494;7.546;2023-04-06T06:48:21;9.90;;;5.68;;
40787;SDS011;26497;52.494;7.546;2023-04-06T06:50:49;11.35;;;5.80;;
40787;SDS011;26497;52.494;7.546;2023-04-06T06:53:16;10.30;;;7.05;;
40787;SDS011;26497;52.494;7.546;2023-04-06T06:55:43;10.30;;;6.35;;
40787;SDS011;26497;52.494;7.546;2023-04-06T06:58:10;8.20;;;6.00;;
40787;SDS011;26497;52.494;7.546;2023-04-06T07:00:38;10.32;;;6.97;;
40787;SDS011;26497;52.494;7.546;2023-04-06T07:03:05;7.90;;;5.90;;
40787;SDS011;26497;52.494;7.546;2023-04-06T07:05:32;9.88;;;6.68;;
40787;SDS011;26497;52.494;7.546;2023-04-06T07:08:00;8.32;;;6.68;;
40787;SDS011;26497;52.494;7.546;2023-04-06T07:10:27;9.50;;;5.88;;
40787;SDS011;26497;52.494;7.546;2023-04-06T07:12:54;8.52;;;5.97;;
40787;SDS011;26497;52.494;7.546;2023-04-06T07:15:21;10.07;;;7.03;;
40787;SDS011;26497;52.494;7.546;2023-04-06T07:17:48;10.55;;;6.43;;
40787;SDS011;26497;52.494;7.546;2023-04-06T07:20:17;7.10;;;6.32;;
40787;SDS011;26497;52.494;7.546;2023-04-06T07:22:44;10.73;;;5.82;;
40787;SDS011;26497;52.494;7.546;2023-04-06T07:25:13;12.80;;;7.05;;
40787;SDS011;26497;52.494;7.546;2023-04-06T07:27:40;7.15;;;6.00;;
40787;SDS011;26497;52.494;7.546;2023-04-06T07:30:07;7.82;;;5.63;;
40787;SDS011;26497;52.494;7.546;2023-04-06T07:32:35;9.15;;;5.40;;
40787;SDS011;26497;52.494;7.546;2023-04-06T07:35:02;8.45;;;5.90;;
40787;SDS011;26497;52.494;7.546;2023-04-06T07:37:29;9.73;;;6.15;;
40787;SDS011;26497;52.494;7.546;2023-04-06T07:39:56;8.27;;;5.93;;
40787;SDS011;26497;52.494;7.546;2023-04-06T07:42:25;8.00;;;5.53;;
40787;SDS011;26497;52.494;7.546;2023-04-06T07:44:52;13.90;;;6.60;;
40787;SDS011;26497;52.494;7.546;2023-04-06T07:47:19;9.68;;;6.85;;
40787;SDS011;26497;52.494;7.546;2023-04-06T07:49:46;7.50;;;5.47;;
40787;SDS011;26497;52.494;7.546;2023-04-06T07:52:13;8.45;;;6.50;;
40787;SDS011;26497;52.494;7.546;2023-04-06T07:54:40;10.00;;;6.07;;
40787;SDS011;26497;52.494;7.546;2023-04-06T07:57:07;8.88;;;6.22;;
40787;SDS011;26497;52.494;7.546;2023-04-06T07:59:36;15.63;;;7.10;;
40787;SDS011;26497;52.494;7.546;2023-04-06T08:02:03;12.45;;;6.88;;
40787;SDS011;26497;52.494;7.546;2023-04-06T08:04:30;16.60;;;6.95;;
40787;SDS011;26497;52.494;7.546;2023-04-06T08:06:57;10.45;;;7.18;;
40787;SDS011;26497;52.494;7.546;2023-04-06T08:09:24;9.88;;;6.50;;
40787;SDS011;26497;52.494;7.546;2023-04-06T08:11:52;11.18;;;7.05;;
40787;SDS011;26497;52.494;7.546;2023-04-06T08:14:19;9.27;;;6.75;;
40787;SDS011;26497;52.494;7.546;2023-04-06T08:16:48;12.25;;;6.63;;
40787;SDS011;26497;52.494;7.546;2023-04-06T08:19:15;10.55;;;6.78;;
40787;SDS011;26497;52.494;7.546;2023-04-06T08:21:43;12.68;;;7.35;;
40787;SDS011;26497;52.494;7.546;2023-04-06T08:24:11;9.60;;;6.78;;
40787;SDS011;26497;52.494;7.546;2023-04-06T08:26:38;15.07;;;7.43;;
40787;SDS011;26497;52.494;7.546;2023-04-06T08:29:05;11.68;;;7.28;;
40787;SDS011;26497;52.494;7.546;2023-04-06T08:31:33;8.68;;;6.88;;
40787;SDS011;26497;52.494;7.546;2023-04-06T08:34:03;10.02;;;6.65;;
40787;SDS011;26497;52.494;7.546;2023-04-06T08:36:31;9.33;;;7.50;;
40787;SDS011;26497;52.494;7.546;2023-04-06T08:38:58;9.35;;;7.47;;
40787;SDS011;26497;52.494;7.546;2023-04-06T08:41:26;13.25;;;7.53;;
40787;SDS011;26497;52.494;7.546;2023-04-06T08:43:56;9.38;;;6.93;;
40787;SDS011;26497;52.494;7.546;2023-04-06T08:46:24;11.90;;;6.95;;
40787;SDS011;26497;52.494;7.546;2023-04-06T08:48:54;10.18;;;7.60;;
40787;SDS011;26497;52.494;7.546;2023-04-06T08:51:24;13.48;;;8.85;;
40787;SDS011;26497;52.494;7.546;2023-04-06T08:53:53;10.68;;;7.13;;
40787;SDS011;26497;52.494;7.546;2023-04-06T08:56:21;10.20;;;7.40;;
40787;SDS011;26497;52.494;7.546;2023-04-06T08:58:48;11.65;;;7.13;;
40787;SDS011;26497;52.494;7.546;2023-04-06T09:01:17;12.55;;;8.07;;
40787;SDS011;26497;52.494;7.546;2023-04-06T09:03:46;11.17;;;7.13;;
40787;SDS011;26497;52.494;7.546;2023-04-06T09:06:15;19.20;;;7.35;;
40787;SDS011;26497;52.494;7.546;2023-04-06T09:08:43;12.68;;;7.78;;
40787;SDS011;26497;52.494;7.546;2023-04-06T09:11:10;11.80;;;7.68;;
40787;SDS011;26497;52.494;7.546;2023-04-06T09:13:44;14.95;;;9.20;;
40787;SDS011;26497;52.494;7.546;2023-04-06T09:16:13;13.77;;;7.72;;
40787;SDS011;26497;52.494;7.546;2023-04-06T09:18:41;10.80;;;8.65;;
40787;SDS011;26497;52.494;7.546;2023-04-06T09:21:08;10.27;;;8.35;;
40787;SDS011;26497;52.494;7.546;2023-04-06T09:23:36;18.10;;;7.93;;
40787;SDS011;26497;52.494;7.546;2023-04-06T09:26:09;14.20;;;9.02;;
40787;SDS011;26497;52.494;7.546;2023-04-06T09:28:41;11.43;;;8.32;;
40787;SDS011;26497;52.494;7.546;2023-04-06T09:31:14;12.15;;;8.90;;
40787;SDS011;26497;52.494;7.546;2023-04-06T09:33:43;12.13;;;9.07;;
40787;SDS011;26497;52.494;7.546;2023-04-06T09:36:11;10.10;;;9.05;;
40787;SDS011;26497;52.494;7.546;2023-04-06T09:38:51;11.27;;;9.05;;
40787;SDS011;26497;52.494;7.546;2023-04-06T09:41:24;11.55;;;9.73;;
40787;SDS011;26497;52.494;7.546;2023-04-06T09:44:01;22.33;;;9.73;;
40787;SDS011;26497;52.494;7.546;2023-04-06T09:46:30;13.27;;;9.48;;
40787;SDS011;26497;52.494;7.546;2023-04-06T09:48:59;14.98;;;10.25;;
40787;SDS011;26497;52.494;7.546;2023-04-06T09:51:28;16.05;;;9.70;;
40787;SDS011;26497;52.494;7.546;2023-04-06T09:53:59;14.35;;;10.40;;
40787;SDS011;26497;52.494;7.546;2023-04-06T09:56:31;16.05;;;10.20;;
40787;SDS011;26497;52.494;7.546;2023-04-06T09:59:12;14.90;;;10.18;;
40787;SDS011;26497;52.494;7.546;2023-04-06T10:01:51;11.65;;;9.13;;
40787;SDS011;26497;52.494;7.546;2023-04-06T10:04:21;22.90;;;10.00;;
40787;SDS011;26497;52.494;7.546;2023-04-06T10:07:02;18.25;;;10.40;;
40787;SDS011;26497;52.494;7.546;2023-04-06T10:09:32;15.75;;;10.75;;
40787;SDS011;26497;52.494;7.546;2023-04-06T10:12:03;15.65;;;12.27;;
40787;SDS011;26497;52.494;7.546;2023-04-06T10:14:32;15.63;;;11.93;;
40787;SDS011;26497;52.494;7.546;2023-04-06T10:17:02;18.03;;;11.20;;
40787;SDS011;26497;52.494;7.546;2023-04-06T10:19:32;11.70;;;10.05;;
40787;SDS011;26497;52.494;7.546;2023-04-06T10:22:08;21.85;;;11.75;;
40787;SDS011;26497;52.494;7.546;2023-04-06T10:24:38;14.93;;;10.88;;
40787;SDS011;26497;52.494;7.546;2023-04-06T10:27:07;16.50;;;11.77;;
40787;SDS011;26497;52.494;7.546;2023-04-06T10:29:43;18.48;;;13.70;;
40787;SDS011;26497;52.494;7.546;2023-04-06T10:32:11;20.38;;;12.60;;
40787;SDS011;26497;52.494;7.546;2023-04-06T10:34:38;20.33;;;12.85;;
40787;SDS011;26497;52.494;7.546;2023-04-06T10:37:15;17.75;;;12.82;;
40787;SDS011;26497;52.494;7.546;2023-04-06T10:39:47;18.50;;;12.38;;
40787;SDS011;26497;52.494;7.546;2023-04-06T10:42:24;20.77;;;13.27;;
40787;SDS011;26497;52.494;7.546;2023-04-06T10:45:04;22.52;;;11.82;;
40787;SDS011;26497;52.494;7.546;2023-04-06T10:47:38;19.45;;;12.48;;
40787;SDS011;26497;52.494;7.546;2023-04-06T10:50:06;17.33;;;13.27;;
40787;SDS011;26497;52.494;7.546;2023-04-06T10:52:35;16.80;;;13.80;;
40787;SDS011;26497;52.494;7.546;2023-04-06T10:55:02;22.70;;;13.25;;
40787;SDS011;26497;52.494;7.546;2023-04-06T10:57:32;15.13;;;12.02;;
40787;SDS011;26497;52.494;7.546;2023-04-06T10:59:59;23.25;;;12.90;;
40787;SDS011;26497;52.494;7.546;2023-04-06T11:02:26;18.27;;;12.98;;
40787;SDS011;26497;52.494;7.546;2023-04-06T11:04:54;18.65;;;12.85;;
40787;SDS011;26497;52.494;7.546;2023-04-06T11:07:23;18.70;;;13.45;;
40787;SDS011;26497;52.494;7.546;2023-04-06T11:09:52;19.77;;;12.27;;
40787;SDS011;26497;52.494;7.546;2023-04-06T11:12:22;17.42;;;12.55;;
40787;SDS011;26497;52.494;7.546;2023-04-06T11:14:55;15.27;;;11.93;;
40787;SDS011;26497;52.494;7.546;2023-04-06T11:17:29;24.17;;;13.52;;
40787;SDS011;26497;52.494;7.546;2023-04-06T11:19:57;18.70;;;13.20;;
40787;SDS011;26497;52.494;7.546;2023-04-06T11:22:25;19.02;;;13.50;;
40787;SDS011;26497;52.494;7.546;2023-04-06T11:24:52;16.65;;;13.00;;
40787;SDS011;26497;52.494;7.546;2023-04-06T11:27:30;23.83;;;14.27;;
40787;SDS011;26497;52.494;7.546;2023-04-06T11:29:59;19.90;;;13.05;;
40787;SDS011;26497;52.494;7.546;2023-04-06T11:32:27;16.13;;;13.02;;
40787;SDS011;26497;52.494;7.546;2023-04-06T11:34:54;23.67;;;13.95;;
40787;SDS011;26497;52.494;7.546;2023-04-06T11:37:25;20.95;;;13.73;;
40787;SDS011;26497;52.494;7.546;2023-04-06T11:39:54;22.00;;;14.05;;
40787;SDS011;26497;52.494;7.546;2023-04-06T11:42:22;16.58;;;13.50;;
40787;SDS011;26497;52.494;7.546;2023-04-06T11:44:50;19.77;;;13.75;;
40787;SDS011;26497;52.494;7.546;2023-04-06T11:47:19;24.55;;;14.15;;
40787;SDS011;26497;52.494;7.546;2023-04-06T11:49:52;19.75;;;12.95;;
40787;SDS011;26497;52.494;7.546;2023-04-06T11:52:20;19.55;;;13.27;;
40787;SDS011;26497;52.494;7.546;2023-04-06T11:54:49;20.50;;;13.10;;
40787;SDS011;26497;52.494;7.546;2023-04-06T11:57:18;22.27;;;13.48;;
40787;SDS011;26497;52.494;7.546;2023-04-06T11:59:48;22.60;;;13.38;;
40787;SDS011;26497;52.494;7.546;2023-04-06T12:02:15;26.83;;;14.93;;
40787;SDS011;26497;52.494;7.546;2023-04-06T12:04:44;23.08;;;13.63;;
40787;SDS011;26497;52.494;7.546;2023-04-06T12:07:11;21.33;;;14.60;;
40787;SDS011;26497;52.494;7.546;2023-04-06T12:09:38;22.60;;;16.17;;
40787;SDS011;26497;52.494;7.546;2023-04-06T12:12:05;25.60;;;14.57;;
40787;SDS011;26497;52.494;7.546;2023-04-06T12:14:32;26.15;;;14.50;;
40787;SDS011;26497;52.494;7.546;2023-04-06T12:16:59;17.33;;;13.02;;
40787;SDS011;26497;52.494;7.546;2023-04-06T12:19:26;20.80;;;13.63;;
40787;SDS011;26497;52.494;7.546;2023-04-06T12:21:55;22.50;;;14.80;;
40787;SDS011;26497;52.494;7.546;2023-04-06T12:24:23;20.13;;;13.60;;
40787;SDS011;26497;52.494;7.546;2023-04-06T12:26:50;19.90;;;13.70;;
40787;SDS011;26497;52.494;7.546;2023-04-06T12:29:17;20.65;;;13.88;;
40787;SDS011;26497;52.494;7.546;2023-04-06T12:31:44;19.63;;;14.48;;
40787;SDS011;26497;52.494;7.546;2023-04-06T12:34:11;18.42;;;14.25;;
40787;SDS011;26497;52.494;7.546;2023-04-06T12:36:39;21.92;;;15.25;;
40787;SDS011;26497;52.494;7.546;2023-04-06T12:39:07;27.98;;;14.10;;
40787;SDS011;26497;52.494;7.546;2023-04-06T12:41:34;23.20;;;15.98;;
40787;SDS011;26497;52.494;7.546;2023-04-06T12:44:01;21.67;;;14.73;;
40787;SDS011;26497;52.494;7.546;2023-04-06T12:46:29;26.73;;;14.48;;
40787;SDS011;26497;52.494;7.546;2023-04-06T12:48:56;19.50;;;13.73;;
40787;SDS011;26497;52.494;7.546;2023-04-06T12:51:24;29.23;;;15.05;;
40787;SDS011;26497;52.494;7.546;2023-04-06T12:53:53;22.50;;;14.57;;
40787;SDS011;26497;52.494;7.546;2023-04-06T12:56:22;24.00;;;15.20;;
40787;SDS011;26497;52.494;7.546;2023-04-06T12:58:50;22.83;;;14.35;;
40787;SDS011;26497;52.494;7.546;2023-04-06T13:01:18;26.13;;;15.57;;
40787;SDS011;26497;52.494;7.546;2023-04-06T13:03:46;25.15;;;17.17;;
40787;SDS011;26497;52.494;7.546;2023-04-06T13:06:13;21.48;;;14.38;;
40787;SDS011;26497;52.494;7.546;2023-04-06T13:08:40;21.65;;;15.82;;
40787;SDS011;26497;52.494;7.546;2023-04-06T13:13:40;21.55;;;14.43;;
40787;SDS011;26497;52.494;7.546;2023-04-06T13:16:07;23.13;;;14.18;;
40787;SDS011;26497;52.494;7.546;2023-04-06T13:18:35;20.23;;;14.23;;
40787;SDS011;26497;52.494;7.546;2023-04-06T13:21:03;24.25;;;14.38;;
40787;SDS011;26497;52.494;7.546;2023-04-06T13:23:31;26.10;;;15.30;;
40787;SDS011;26497;52.494;7.546;2023-04-06T13:25:58;23.23;;;15.10;;
40787;SDS011;26497;52.494;7.546;2023-04-06T13:28:26;23.15;;;14.88;;
40787;SDS011;26497;52.494;7.546;2023-04-06T13:30:55;22.85;;;15.27;;
40787;SDS011;26497;52.494;7.546;2023-04-06T13:35:52;31.02;;;16.08;;
40787;SDS011;26497;52.494;7.546;2023-04-06T13:38:19;22.98;;;14.40;;
40787;SDS011;26497;52.494;7.546;2023-04-06T13:40:49;25.75;;;16.42;;
40787;SDS011;26497;52.494;7.546;2023-04-06T13:43:16;24.52;;;14.77;;
40787;SDS011;26497;52.494;7.546;2023-04-06T13:45:48;33.45;;;15.80;;
40787;SDS011;26497;52.494;7.546;2023-04-06T13:48:17;24.45;;;15.15;;
40787;SDS011;26497;52.494;7.546;2023-04-06T13:50:44;25.35;;;14.95;;
40787;SDS011;26497;52.494;7.546;2023-04-06T13:53:11;29.65;;;15.35;;
40787;SDS011;26497;52.494;7.546;2023-04-06T13:55:39;24.23;;;14.65;;
40787;SDS011;26497;52.494;7.546;2023-04-06T13:58:06;31.25;;;16.98;;
40787;SDS011;26497;52.494;7.546;2023-04-06T14:00:34;26.45;;;15.80;;
40787;SDS011;26497;52.494;7.546;2023-04-06T14:03:01;27.02;;;15.60;;
40787;SDS011;26497;52.494;7.546;2023-04-06T14:05:31;29.25;;;15.63;;
40787;SDS011;26497;52.494;7.546;2023-04-06T14:07:59;28.27;;;15.93;;
40787;SDS011;26497;52.494;7.546;2023-04-06T14:10:26;30.75;;;16.30;;
40787;SDS011;26497;52.494;7.546;2023-04-06T14:12:53;24.77;;;15.18;;
40787;SDS011;26497;52.494;7.546;2023-04-06T14:15:20;24.90;;;16.33;;
40787;SDS011;26497;52.494;7.546;2023-04-06T14:17:48;34.03;;;16.83;;
40787;SDS011;26497;52.494;7.546;2023-04-06T14:20:17;25.80;;;15.63;;
40787;SDS011;26497;52.494;7.546;2023-04-06T14:22:46;32.08;;;15.65;;
40787;SDS011;26497;52.494;7.546;2023-04-06T14:25:14;25.67;;;16.45;;
40787;SDS011;26497;52.494;7.546;2023-04-06T14:27:42;26.85;;;16.05;;
40787;SDS011;26497;52.494;7.546;2023-04-06T14:30:10;24.38;;;16.23;;
40787;SDS011;26497;52.494;7.546;2023-04-06T14:32:38;27.52;;;15.90;;
40787;SDS011;26497;52.494;7.546;2023-04-06T14:35:06;27.27;;;15.10;;
40787;SDS011;26497;52.494;7.546;2023-04-06T14:37:34;32.13;;;16.63;;